Terminal Aerodrome Forecast
Issued by NWS

Home | Current Version | Previous Version | Text Only | Print | Product List | Glossary On
Versions: 1 2 3 4 5 6 7 8 9 10 11 12 13
000
FTUS45 KRIW 242300
TAFJAC
TAF
KJAC 242320Z 2500/2524 34006KT P6SM VCSH SCT020 BKN040
     FM250300 35006KT 6SM -RA BR OVC020
     FM250900 36005KT P6SM VCSH SCT010 BKN025
     FM251700 VRB06KT P6SM SCT025 BKN060
      AMD LTD TO CLD VIS AND WIND=

USA.gov is the U.S. government's official web portal to all federal, state and local government web resources and services.